TNCBMKJS

Guest
Details From TNCB - Bonaire Flamingo
To MKJS - Montego Bay Sangster Intl
Flight Number -
Tags Generated
Created
Modified
Stats Distance 677 nm / 1,253 km
Max Altitude 0 ft / 0 m
Waypoints 3
Social Downloads 1
Likes 0
Share VATSIM

Download

Looking for another format? Having issues loading an existing format? Contact us
Advertisement - Login to hide

Notes

Generated

Route

TNCB MBJ MKJS

ID Type Via Altitude Latitude Longitude Leg Dist Tot Dist Heading (true) Name
O TNCB APT - 0 ft / 0 m 12.13144˚ -68.28175˚ - 0 nm - -
MBJ VOR - 0 ft / 0 m 18.50036˚ -77.92392˚ 676 nm 676 nm 306° / 303° MONTEGO BAY VOR-DME
O MKJS APT - 0 ft / 0 m 18.49873˚ -77.92482˚ 0 nm 676 nm 208° / 208° -

Altitude Profile

Advertisement - Login to hide

Weather


0- 5 10 15 20 25 30 35+ Temperature / ° C

Clouds and Precipitation
Forecast for 2017-12-15 12:00 UTC. Updated an hour ago

Ground ~20,000 ft ~40,000 ft Winds

TNCB

Details ICAO TNCB (BON)
Name Bonaire Flamingo
Region Caribbean Netherlands, Aruba, Curaçao, Sint Maarten
Timezone America/Curacao (UTC-4.0)
Stats Elevation 20 ft / 6 m (AMSL)
Location 12.131046° -68.268511°
Runways 1
Magnetic Variation 11.704° W

METAR

TNCB 150955Z AUTO 08013KT 050V110 9999 NSC 26/22 Q1013

Decode

TAF

TAF TNCB 150520Z 1506/1612 09015KT 9999 SCT020

Decode

Departure Runways

ID Width Length Bearing (true) Bearing (mag) Surface Threshold Offset Overrun Length
10 148 ft / 45 m 9,451 ft / 2,881 m 91.75° 103.45° Asphalt 0 ft / 0 m 0 ft / 0 m
28 148 ft / 45 m 9,451 ft / 2,881 m 271.76° 283.46° Asphalt 0 ft / 0 m 200 ft / 61 m

MKJS

Details ICAO MKJS (MBJ)
Name Sangster Intl
Region Jamaica
Timezone America/Jamaica (UTC-5.0)
Stats Elevation 6 ft / 2 m (AMSL)
Location 18.503549° -77.913698°
Runways 1
Magnetic Variation 6.956° W

METAR

MKJS 151000Z 18005KT 9999 FEW022 23/21 Q1014

Decode

TAF

TAF MKJS 150515Z 1506/1606 VRB03KT 9999 FEW022 BECMG 1514/1516 08015KT BECMG 1601/1603 VRB03KT

Decode

Destination Runways

ID Width Length Bearing (true) Bearing (mag) Surface Threshold Offset Overrun Length
07 161 ft / 49 m 8,495 ft / 2,589 m 65.37° 72.33° Asphalt 220 ft / 67 m 312 ft / 95 m
25 161 ft / 49 m 8,495 ft / 2,589 m 245.37° 252.33° Asphalt 577 ft / 176 m 200 ft / 61 m

Approach Navaids

Runway Type Ident Frequency Range Bearing (true) Bearing (mag) Slope Elevation
07 Localiser ISIA 109.50 MHz 18 nm / 33 km 65.41° 72.36° - 4 ft / 1 m (AMSL)
07 Glidescope ISIA 109.50 MHz 10 nm / 19 km 65.37° 72.33° 3.00° 4 ft / 1 m (AMSL)

Popular Alternatives